Time;durP1;ratioP1;P1;durP2;ratioP2;P2;SDS_P1;SDS_P2;PMS_P1;PMS_P2;Temp;Humidity;BMP_temperature;BMP_pressure;BME280_temperature;BME280_humidity;BME280_pressure;Samples;Min_cycle;Max_cycle;Signal;HPM_P1;HPM_P2
2022/08/12 00:43:35;;;;;;;3.13;2.45;;;19.00;99.90;;;;;;5036184;28;20557;-69
2022/08/12 00:48:46;;;;;;;3.05;2.33;;;18.90;99.90;;;;;;5035807;28;20056;-69
2022/08/12 00:51:13;;;;;;;4.50;2.72;;;18.90;99.90;;;;;;5018153;28;20072;-69
2022/08/12 00:53:38;;;;;;;3.30;2.65;;;18.90;99.90;;;;;;5035706;28;20081;-69
2022/08/12 00:56:05;;;;;;;5.68;2.78;;;18.90;99.90;;;;;;5035659;28;20521;-69
2022/08/12 00:58:32;;;;;;;4.25;2.60;;;18.80;99.90;;;;;;5035632;28;20041;-69
2022/08/12 01:01:06;;;;;;;3.28;2.72;;;18.80;99.90;;;;;;5035654;28;20041;-69
2022/08/12 01:12:11;;;;;;;5.15;3.25;;;18.60;99.90;;;;;;5036269;28;20115;-69
2022/08/12 01:14:38;;;;;;;4.00;3.03;;;18.50;99.90;;;;;;5035271;28;20045;-69
2022/08/12 01:17:04;;;;;;;3.75;3.00;;;18.50;99.90;;;;;;5017699;28;20053;-69
2022/08/12 01:19:30;;;;;;;4.55;2.83;;;18.50;99.90;;;;;;5017945;28;20092;-69
2022/08/12 01:22:22;;;;;;;3.90;2.90;;;18.40;99.90;;;;;;5017767;28;20111;-69
2022/08/12 01:25:11;;;;;;;5.60;3.17;;;18.40;99.90;;;;;;5018001;28;20037;-69
2022/08/12 01:27:39;;;;;;;3.85;3.13;;;18.40;99.90;;;;;;5035191;28;20500;-69
2022/08/12 01:30:10;;;;;;;3.63;2.83;;;18.30;99.90;;;;;;5035021;28;20049;-69
2022/08/12 01:32:41;;;;;;;4.00;3.42;;;18.30;99.90;;;;;;5017281;28;20057;-69
2022/08/12 01:35:13;;;;;;;4.85;3.97;;;18.30;99.90;;;;;;5034928;28;20049;-69
2022/08/12 01:37:59;;;;;;;5.97;3.30;;;18.20;99.90;;;;;;5034315;28;20060;-69
2022/08/12 01:40:32;;;;;;;;;;;18.10;99.90;;;;;;5036112;28;20132;-69
2022/08/12 01:43:08;;;;;;;5.78;3.60;;;18.10;99.90;;;;;;5035662;28;20023;-69
2022/08/12 01:45:39;;;;;;;3.75;3.20;;;18.10;99.90;;;;;;5034801;28;20116;-69
2022/08/12 01:48:27;;;;;;;4.35;3.60;;;18.10;99.90;;;;;;5018137;28;20085;-69
2022/08/12 01:51:25;;;;;;;4.15;3.40;;;18.00;99.90;;;;;;5035217;28;20041;-69
2022/08/12 01:54:14;;;;;;;4.85;3.08;;;17.90;99.90;;;;;;4949507;28;20072;-69
2022/08/12 01:57:02;;;;;;;5.15;3.33;;;17.90;99.90;;;;;;5034449;28;20099;-69
2022/08/12 01:59:58;;;;;;;4.93;3.22;;;17.80;99.90;;;;;;5035125;28;20124;-69
2022/08/12 02:02:52;;;;;;;4.35;3.47;;;17.80;99.90;;;;;;5034577;28;20049;-69
2022/08/12 02:11:30;;;;;;;4.60;3.25;;;17.60;99.90;;;;;;5034611;28;20053;-69
2022/08/12 02:14:24;;;;;;;4.68;3.05;;;17.60;99.90;;;;;;5014051;28;20430;-69
2022/08/12 02:17:11;;;;;;;5.65;3.15;;;17.60;99.90;;;;;;5034196;28;20124;-69
2022/08/12 02:19:39;;;;;;;3.97;3.15;;;17.60;99.90;;;;;;5034193;28;20052;-69
2022/08/12 02:22:37;;;;;;;3.53;2.85;;;17.60;99.90;;;;;;5034035;28;20045;-69
2022/08/12 02:25:15;;;;;;;4.63;3.20;;;17.60;99.90;;;;;;5034317;28;20653;-69
2022/08/12 02:27:46;;;;;;;3.88;3.15;;;17.60;99.90;;;;;;5034090;28;20053;-69
2022/08/12 02:30:22;;;;;;;4.85;3.13;;;17.60;99.90;;;;;;5034469;28;20053;-69
2022/08/12 02:32:50;;;;;;;4.60;3.63;;;17.50;99.90;;;;;;5034519;28;20437;-69
2022/08/12 02:35:19;;;;;;;3.83;3.10;;;17.50;99.90;;;;;;5016108;28;20441;-69
2022/08/12 02:37:48;;;;;;;4.45;3.17;;;17.50;99.90;;;;;;5033949;28;20508;-69
2022/08/12 02:40:16;;;;;;;4.85;3.50;;;17.40;99.90;;;;;;5033864;28;20052;-69
2022/08/12 02:43:01;;;;;;;4.85;3.22;;;17.40;99.90;;;;;;5033674;28;20053;-69
2022/08/12 02:46:07;;;;;;;4.35;3.38;;;17.40;99.90;;;;;;5034494;28;20084;-69
2022/08/12 02:48:51;;;;;;;4.90;3.38;;;17.30;99.90;;;;;;5033178;28;20045;-69
2022/08/12 02:51:22;;;;;;;5.03;3.47;;;17.20;99.90;;;;;;5032699;28;20049;-69
2022/08/12 02:53:49;;;;;;;6.70;3.60;;;17.20;99.90;;;;;;5016112;28;20057;-69
2022/08/12 02:56:17;;;;;;;4.18;3.40;;;17.10;99.90;;;;;;5033250;28;20514;-69
2022/08/12 02:58:45;;;;;;;3.80;3.10;;;17.10;99.90;;;;;;5033381;28;20096;-69
2022/08/12 03:01:12;;;;;;;4.60;3.50;;;17.00;99.90;;;;;;5033415;28;20061;-69
2022/08/12 03:03:39;;;;;;;4.95;3.70;;;17.00;99.90;;;;;;5033364;28;20087;-69
2022/08/12 03:06:20;;;;;;;4.43;3.50;;;16.90;99.90;;;;;;5034205;28;20374;-69
2022/08/12 03:08:47;;;;;;;5.00;3.30;;;16.90;99.90;;;;;;5033399;28;20055;-69
2022/08/12 03:11:24;;;;;;;6.13;4.03;;;16.90;99.90;;;;;;5033276;28;20050;-69
2022/08/12 03:13:58;;;;;;;5.65;3.60;;;16.90;99.90;;;;;;5033437;28;20049;-69
2022/08/12 03:16:28;;;;;;;3.85;3.45;;;16.80;99.90;;;;;;5033355;28;20052;-69
2022/08/12 03:18:55;;;;;;;4.90;3.85;;;16.80;99.90;;;;;;5033365;28;20085;-69
2022/08/12 03:21:23;;;;;;;4.93;3.60;;;16.80;99.90;;;;;;5033215;28;20042;-69
2022/08/12 03:23:52;;;;;;;4.85;3.80;;;16.80;99.90;;;;;;5033849;28;20041;-69
2022/08/12 03:26:23;;;;;;;5.68;3.40;;;16.80;99.90;;;;;;5033082;28;20050;-69
2022/08/12 03:28:50;;;;;;;5.50;3.47;;;16.80;99.90;;;;;;5015902;28;20088;-69
2022/08/12 03:31:21;;;;;;;5.25;3.92;;;16.80;99.90;;;;;;5032777;28;20083;-69
2022/08/12 03:33:48;;;;;;;5.57;3.88;;;16.80;99.90;;;;;;5033492;28;20084;-69
2022/08/12 03:36:19;;;;;;;6.43;4.78;;;16.80;99.90;;;;;;5033452;28;20079;-69
2022/08/12 03:39:13;;;;;;;4.05;3.45;;;16.80;99.90;;;;;;5033297;28;20087;-69
2022/08/12 04:01:05;;;;;;;5.70;4.28;;;16.80;99.90;;;;;;5033435;28;20065;-69
2022/08/12 04:03:51;;;;;;;5.13;3.90;;;16.80;99.90;;;;;;5036943;28;20490;-69
2022/08/12 04:06:28;;;;;;;5.20;4.13;;;16.70;99.90;;;;;;5037020;28;20041;-69
2022/08/12 04:08:57;;;;;;;7.28;4.60;;;16.70;99.90;;;;;;5036285;28;20049;-69
2022/08/12 04:14:19;;;;;;;4.95;3.95;;;16.60;99.90;;;;;;5036211;28;20049;-69
2022/08/12 04:16:49;;;;;;;4.80;3.95;;;16.60;99.90;;;;;;5019686;28;20054;-69
2022/08/12 04:19:16;;;;;;;5.78;3.88;;;16.50;99.90;;;;;;5019157;28;20368;-69
2022/08/12 04:21:42;;;;;;;6.35;4.15;;;16.50;99.90;;;;;;5036344;28;20107;-69
2022/08/12 04:24:10;;;;;;;5.00;4.18;;;16.50;99.90;;;;;;5035943;28;20469;-69
2022/08/12 04:26:38;;;;;;;5.40;4.25;;;16.40;99.90;;;;;;5036188;28;20041;-69
2022/08/12 04:29:04;;;;;;;5.63;4.32;;;16.40;99.90;;;;;;5036272;28;20054;-69
2022/08/12 04:31:31;;;;;;;4.78;4.10;;;16.40;99.90;;;;;;5036503;28;20398;-69
2022/08/12 04:33:58;;;;;;;5.72;3.67;;;16.30;99.90;;;;;;5036051;28;20080;-69
2022/08/12 04:36:23;;;;;;;5.30;4.15;;;16.30;99.90;;;;;;5036163;28;20445;-69
2022/08/12 04:38:50;;;;;;;5.82;4.07;;;16.30;99.90;;;;;;5036848;28;20041;-69
2022/08/12 04:41:17;;;;;;;4.72;4.00;;;16.30;99.90;;;;;;5035921;28;20056;-69
2022/08/12 04:43:43;;;;;;;5.85;4.45;;;16.30;99.90;;;;;;5035950;28;20115;-69
2022/08/12 04:46:10;;;;;;;6.57;4.20;;;16.20;99.90;;;;;;5036082;28;20474;-69
2022/08/12 04:48:36;;;;;;;4.95;4.10;;;16.20;99.90;;;;;;5035852;28;20081;-69
2022/08/12 04:51:02;;;;;;;5.70;4.03;;;16.20;99.90;;;;;;5036092;28;20115;-69
2022/08/12 04:53:29;;;;;;;5.07;3.90;;;16.20;99.90;;;;;;5035643;28;20068;-69
2022/08/12 04:55:56;;;;;;;5.72;4.05;;;16.30;99.90;;;;;;5035756;28;20053;-69
2022/08/12 04:58:22;;;;;;;6.75;4.20;;;16.30;99.90;;;;;;5035669;28;20042;-69
2022/08/12 05:00:48;;;;;;;4.90;4.30;;;16.40;99.90;;;;;;5035707;28;20390;-69
2022/08/12 05:03:14;;;;;;;5.25;4.15;;;16.40;99.90;;;;;;5035559;28;20041;-69
2022/08/12 05:05:41;;;;;;;5.55;3.70;;;16.50;99.90;;;;;;5036087;28;20042;-69
2022/08/12 05:08:15;;;;;;;4.65;3.85;;;16.50;99.90;;;;;;5035535;28;20397;-69
2022/08/12 05:10:45;;;;;;;5.57;4.05;;;16.60;99.90;;;;;;5035768;28;20040;-69
2022/08/12 05:13:36;;;;;;;6.13;3.90;;;16.70;99.90;;;;;;5035063;28;20068;-69
2022/08/12 05:16:03;;;;;;;5.03;3.67;;;16.70;99.90;;;;;;5035812;28;20059;-69
2022/08/12 05:18:28;;;;;;;6.72;3.92;;;16.80;99.90;;;;;;5036053;28;20068;-69
2022/08/12 05:20:54;;;;;;;4.53;3.92;;;16.80;99.90;;;;;;5017643;28;20492;-69
2022/08/12 05:23:21;;;;;;;5.50;4.03;;;16.90;99.90;;;;;;5036099;28;20572;-69
2022/08/12 05:25:50;;;;;;;5.40;3.95;;;16.90;99.90;;;;;;5035124;28;20057;-69
2022/08/12 05:28:17;;;;;;;6.32;4.15;;;17.00;99.90;;;;;;5035662;28;20046;-69
2022/08/12 05:30:44;;;;;;;6.00;3.97;;;17.00;99.90;;;;;;5034704;28;20140;-69
2022/08/12 05:33:12;;;;;;;6.05;4.05;;;17.10;99.90;;;;;;5017606;28;20056;-69
2022/08/12 05:35:40;;;;;;;4.50;4.00;;;17.20;99.90;;;;;;5034907;28;20084;-69
2022/08/12 05:41:19;;;;;;;5.53;4.00;;;17.40;99.90;;;;;;4990567;28;20140;-69
2022/08/12 05:43:57;;;;;;;5.07;3.55;;;17.40;99.90;;;;;;5034731;28;20072;-69
2022/08/12 05:46:23;;;;;;;4.03;3.53;;;17.60;99.90;;;;;;5035053;28;20049;-69
2022/08/12 05:48:53;;;;;;;5.38;3.85;;;17.60;99.90;;;;;;5034770;28;20048;-69
2022/08/12 05:51:19;;;;;;;5.05;3.88;;;17.70;99.90;;;;;;5034698;28;20049;-69
2022/08/12 05:53:45;;;;;;;4.65;3.75;;;17.80;99.90;;;;;;5034567;28;22016;-69
2022/08/12 05:56:23;;;;;;;4.97;3.65;;;17.90;99.90;;;;;;5034631;28;20172;-69
2022/08/12 05:58:50;;;;;;;6.22;3.67;;;18.10;99.90;;;;;;5035160;28;20061;-69
2022/08/12 06:01:16;;;;;;;4.57;3.75;;;18.10;99.90;;;;;;5034486;28;20052;-69
2022/08/12 06:03:42;;;;;;;4.20;3.78;;;18.20;99.90;;;;;;5034458;28;20115;-69
2022/08/12 06:06:09;;;;;;;5.72;3.85;;;18.30;99.90;;;;;;5034471;28;20088;-69
2022/08/12 06:08:35;;;;;;;3.80;3.17;;;18.40;99.90;;;;;;5034354;28;20049;-69
2022/08/12 06:11:04;;;;;;;6.43;3.95;;;18.50;99.90;;;;;;5017110;28;20052;-66
2022/08/12 06:13:33;;;;;;;4.63;3.60;;;18.50;99.90;;;;;;5034165;28;20049;-65
2022/08/12 06:16:00;;;;;;;4.57;3.45;;;18.60;99.90;;;;;;5034067;28;20049;-65
2022/08/12 06:18:25;;;;;;;6.95;3.88;;;18.70;99.90;;;;;;5035020;28;20080;-65
2022/08/12 06:20:57;;;;;;;4.90;3.20;;;18.80;99.90;;;;;;5034122;28;20521;-65
2022/08/12 06:23:27;;;;;;;4.10;3.58;;;18.90;99.90;;;;;;5034539;28;20165;-65
2022/08/12 06:25:54;;;;;;;4.60;3.35;;;19.00;99.90;;;;;;5034319;28;20372;-65
2022/08/12 06:28:21;;;;;;;5.40;3.30;;;19.10;99.90;;;;;;5016593;28;20140;-65
2022/08/12 06:30:49;;;;;;;5.03;3.70;;;19.20;99.90;;;;;;5033916;28;20116;-65
2022/08/12 06:33:15;;;;;;;4.43;3.35;;;19.40;99.90;;;;;;5034492;28;20394;-66
2022/08/12 06:35:41;;;;;;;6.18;3.38;;;19.40;99.90;;;;;;5033758;28;20038;-66
2022/08/12 06:38:19;;;;;;;4.43;3.40;;;19.50;99.90;;;;;;5016080;28;20422;-65
2022/08/12 06:43:31;;;;;;;4.10;3.13;;;19.70;99.90;;;;;;5034058;28;20477;-65
2022/08/12 06:45:57;;;;;;;5.07;3.60;;;19.80;99.90;;;;;;5033705;28;20453;-66
2022/08/12 06:48:25;;;;;;;4.20;3.08;;;19.90;99.90;;;;;;5034174;28;20045;-65
2022/08/12 06:50:51;;;;;;;4.82;3.67;;;20.00;99.90;;;;;;5033638;28;20053;-65
2022/08/12 06:53:16;;;;;;;3.60;3.03;;;20.10;99.90;;;;;;5033562;28;20063;-66
2022/08/12 06:55:42;;;;;;;5.03;2.92;;;20.20;99.90;;;;;;5033755;28;20041;-65
2022/08/12 06:58:08;;;;;;;4.57;3.13;;;20.30;99.90;;;;;;5016306;28;20124;-65
2022/08/12 07:00:34;;;;;;;4.07;3.42;;;20.40;99.90;;;;;;5033430;28;20049;-65
2022/08/12 07:03:02;;;;;;;5.32;3.00;;;20.50;99.90;;;;;;5033475;28;20067;-65
2022/08/12 07:05:28;;;;;;;3.83;3.42;;;20.60;99.90;;;;;;5033744;28;20120;-66
2022/08/12 07:08:00;;;;;;;6.47;3.70;;;20.70;99.90;;;;;;5015834;28;20056;-65
2022/08/12 07:10:26;;;;;;;6.18;3.35;;;20.70;99.90;;;;;;5015950;28;20525;-66
2022/08/12 07:12:55;;;;;;;5.60;3.53;;;20.80;99.90;;;;;;5033254;28;20045;-67
2022/08/12 07:15:24;;;;;;;5.97;3.38;;;20.80;99.90;;;;;;5032100;28;20037;-66
2022/08/12 07:20:43;;;;;;;6.60;3.40;;;21.00;99.90;;;;;;5033413;28;20045;-67
2022/08/12 07:23:09;;;;;;;5.97;3.33;;;21.00;99.90;;;;;;5033176;28;20061;-67
2022/08/12 07:25:36;;;;;;;4.50;3.30;;;21.10;99.90;;;;;;5033032;28;20037;-66
2022/08/12 07:28:08;;;;;;;5.30;3.40;;;21.20;99.90;;;;;;5015521;28;20053;-66
2022/08/12 07:30:37;;;;;;;5.18;3.90;;;21.30;99.90;;;;;;5032810;28;20087;-65
2022/08/12 07:33:07;;;;;;;4.43;3.40;;;21.40;99.90;;;;;;5033020;28;20057;-65
2022/08/12 07:35:44;;;;;;;4.95;3.35;;;21.40;99.90;;;;;;5032824;28;20180;-66
2022/08/12 07:38:29;;;;;;;4.97;3.30;;;21.60;99.90;;;;;;5036882;28;20132;-65
2022/08/12 07:41:09;;;;;;;4.10;2.95;;;21.70;99.90;;;;;;5037007;28;20053;-65
2022/08/12 07:43:38;;;;;;;4.45;3.00;;;21.90;99.90;;;;;;5037506;28;20038;-65
2022/08/12 07:46:06;;;;;;;6.47;3.10;;;22.00;99.90;;;;;;5037279;28;20050;-65
2022/08/12 07:48:45;;;;;;;4.60;3.10;;;22.10;99.90;;;;;;5036973;28;20393;-65
2022/08/12 07:51:11;;;;;;;4.25;2.85;;;22.30;99.90;;;;;;5037246;28;20045;-65
2022/08/12 07:53:38;;;;;;;4.13;2.90;;;22.40;99.90;;;;;;5036799;28;20049;-65
2022/08/12 07:56:05;;;;;;;3.35;2.53;;;22.60;99.90;;;;;;5036863;28;20053;-65
2022/08/12 07:58:31;;;;;;;3.70;2.70;;;22.70;99.90;;;;;;5036815;28;20081;-65
2022/08/12 08:00:59;;;;;;;5.93;2.95;;;22.80;99.90;;;;;;5019322;28;20049;-65
2022/08/12 08:03:26;;;;;;;3.88;2.63;;;22.90;99.90;;;;;;5036758;28;20062;-65
2022/08/12 08:05:52;;;;;;;3.72;2.60;;;23.00;99.90;;;;;;5036670;28;20132;-65
2022/08/12 08:08:22;;;;;;;3.15;2.40;;;23.00;99.90;;;;;;5036595;28;20100;-65
2022/08/12 08:10:50;;;;;;;3.40;2.50;;;23.10;99.90;;;;;;5036901;28;20056;-65
2022/08/12 08:13:17;;;;;;;4.32;2.85;;;23.30;99.90;;;;;;5037294;28;20386;-65
2022/08/12 08:15:46;;;;;;;3.85;2.80;;;23.50;99.90;;;;;;5035225;28;20041;-65
2022/08/12 08:18:15;;;;;;;3.38;2.30;;;23.60;99.90;;;;;;5036966;28;20051;-65
2022/08/12 08:20:45;;;;;;;5.75;2.65;;;23.60;99.90;;;;;;5036376;28;20057;-65
2022/08/12 08:23:16;;;;;;;5.65;2.85;;;23.70;99.90;;;;;;5036965;28;20049;-65
2022/08/12 08:25:43;;;;;;;3.88;2.55;;;23.90;99.90;;;;;;5036318;28;20120;-65
2022/08/12 08:28:18;;;;;;;3.92;2.40;;;24.00;99.90;;;;;;5036250;28;20088;-65
2022/08/12 08:30:46;;;;;;;3.78;2.80;;;24.10;99.90;;;;;;5036088;28;20057;-65
2022/08/12 08:33:13;;;;;;;3.92;2.92;;;24.10;99.90;;;;;;5036731;28;20196;-65
2022/08/12 08:35:41;;;;;;;4.85;2.60;;;24.20;99.90;;;;;;5036731;28;20538;-65
2022/08/12 08:38:16;;;;;;;3.83;2.60;;;24.30;99.90;;;;;;5035754;28;20049;-65
2022/08/12 08:43:47;;;;;;;4.17;2.77;;;24.50;99.90;;;;;;4955302;29;20239;-66
2022/08/12 08:46:13;;;;;;;3.28;2.25;;;24.60;99.90;;;;;;4940216;29;20076;-66
2022/08/12 08:48:39;;;;;;;3.60;2.72;;;24.70;99.90;;;;;;4991878;28;20095;-66
2022/08/12 08:51:05;;;;;;;3.33;2.33;;;24.90;99.90;;;;;;5036317;28;20437;-65
2022/08/12 08:53:32;;;;;;;7.03;2.95;;;25.00;99.90;;;;;;5035825;28;20373;-66
2022/08/12 08:55:58;;;;;;;5.20;2.65;;;25.10;99.90;;;;;;5018232;28;20085;-65
2022/08/12 08:58:24;;;;;;;4.53;2.22;;;25.20;99.90;;;;;;5036401;28;20077;-68
2022/08/12 09:00:51;;;;;;;4.28;2.28;;;25.40;99.90;;;;;;5035737;28;20131;-68
2022/08/12 09:03:17;;;;;;;4.22;2.42;;;25.50;99.90;;;;;;5018649;28;20378;-68
2022/08/12 09:05:44;;;;;;;3.35;2.42;;;25.70;99.90;;;;;;5035561;28;20128;-67
2022/08/12 09:08:10;;;;;;;6.10;2.38;;;25.70;99.90;;;;;;5035276;28;20544;-67
2022/08/12 09:10:37;;;;;;;4.43;2.50;;;25.80;99.90;;;;;;5035316;28;20054;-67
2022/08/12 09:15:48;;;;;;;5.47;2.70;;;26.10;99.90;;;;;;5035313;28;20053;-67
2022/08/12 09:18:15;;;;;;;4.72;2.30;;;26.20;99.90;;;;;;5035646;28;20060;-67
2022/08/12 09:20:41;;;;;;;4.75;2.33;;;26.30;99.90;;;;;;5035277;28;20049;-67
2022/08/12 09:23:10;;;;;;;3.50;2.15;;;26.40;99.90;;;;;;5017525;28;20041;-67
2022/08/12 09:25:40;;;;;;;6.95;2.92;;;26.50;99.90;;;;;;5035183;28;20561;-68
2022/08/12 09:28:10;;;;;;;4.85;2.33;;;26.60;99.90;;;;;;5036042;28;20087;-67
2022/08/12 09:30:37;;;;;;;4.22;2.15;;;26.60;99.90;;;;;;5034998;28;20127;-68
2022/08/12 09:33:03;;;;;;;4.35;2.20;;;26.70;99.90;;;;;;5035246;28;20570;-66
2022/08/12 09:35:32;;;;;;;2.97;2.22;;;26.90;99.90;;;;;;5034846;28;20455;-66
2022/08/12 09:38:03;;;;;;;5.03;2.20;;;27.10;99.90;;;;;;5034855;28;20041;-67
2022/08/12 09:40:30;;;;;;;3.88;2.00;;;27.20;99.90;;;;;;5034980;28;20046;-67
2022/08/12 09:45:45;;;;;;;4.07;2.05;;;27.40;99.90;;;;;;5035436;28;20187;-67
2022/08/12 09:48:15;;;;;;;4.68;2.15;;;27.40;99.90;;;;;;5035620;28;20049;-66
2022/08/12 09:50:41;;;;;;;2.53;1.80;;;27.40;99.90;;;;;;5034640;28;20056;-66
2022/08/12 09:53:14;;;;;;;2.92;1.88;;;27.50;99.90;;;;;;5017305;28;20386;-66
2022/08/12 09:55:48;;;;;;;3.30;1.90;;;27.50;99.90;;;;;;5035078;28;20133;-68
2022/08/12 09:58:17;;;;;;;3.60;1.90;;;27.60;99.90;;;;;;5034925;28;20052;-66
2022/08/12 10:00:43;;;;;;;3.47;2.05;;;27.60;99.90;;;;;;5033987;28;20046;-67
2022/08/12 10:03:11;;;;;;;4.45;2.00;;;27.70;99.90;;;;;;5034985;28;20053;-67
2022/08/12 10:05:42;;;;;;;3.83;1.85;;;27.80;99.90;;;;;;5034426;28;20046;-67
2022/08/12 10:08:10;;;;;;;3.78;1.70;;;28.00;99.90;;;;;;5034340;28;20041;-67
2022/08/12 10:13:41;;;;;;;3.58;1.70;;;28.20;99.90;;;;;;5034554;28;20102;-68
2022/08/12 10:16:18;;;;;;;3.45;1.80;;;28.30;99.90;;;;;;5034181;28;20045;-68
2022/08/12 10:18:47;;;;;;;3.15;1.60;;;28.30;99.90;;;;;;5034011;28;20053;-67
2022/08/12 10:21:18;;;;;;;2.00;1.55;;;28.30;99.90;;;;;;5034919;28;20367;-67
2022/08/12 10:23:46;;;;;;;4.13;1.83;;;28.20;99.50;;;;;;5034352;28;20041;-67
2022/08/12 10:31:48;;;;;;;3.58;1.80;;;28.30;98.20;;;;;;5034291;28;20088;-66
2022/08/12 10:34:14;;;;;;;4.72;1.60;;;28.40;97.70;;;;;;5017114;28;20045;-67
2022/08/12 10:36:41;;;;;;;3.58;1.55;;;28.50;97.70;;;;;;5033827;28;20056;-68
2022/08/12 10:39:08;;;;;;;3.90;1.58;;;28.60;97.20;;;;;;5016387;28;20530;-66
2022/08/12 10:44:19;;;;;;;2.50;1.88;;;28.80;96.60;;;;;;5034395;28;20052;-65
2022/08/12 10:46:45;;;;;;;2.35;1.60;;;28.80;96.20;;;;;;5033877;28;20482;-65
2022/08/12 10:49:11;;;;;;;2.33;1.50;;;28.70;95.70;;;;;;5034240;28;20049;-65
2022/08/12 10:51:40;;;;;;;2.10;1.40;;;28.70;95.30;;;;;;5033582;28;20045;-66
2022/08/12 10:54:06;;;;;;;2.35;1.45;;;28.70;95.00;;;;;;5033434;28;20053;-65
2022/08/12 10:56:35;;;;;;;2.40;1.30;;;28.80;94.50;;;;;;5033539;28;20378;-65
2022/08/12 10:59:05;;;;;;;2.85;1.40;;;28.90;94.30;;;;;;5033768;28;20049;-65
2022/08/12 11:01:32;;;;;;;2.08;1.48;;;29.00;93.60;;;;;;5033378;28;20038;-65
2022/08/12 11:04:01;;;;;;;2.05;1.52;;;29.10;93.10;;;;;;5033422;28;20048;-65
2022/08/12 11:06:27;;;;;;;3.90;1.65;;;29.10;92.70;;;;;;5032981;28;20049;-67
2022/08/12 11:08:55;;;;;;;3.03;1.80;;;29.10;92.20;;;;;;5033261;28;20049;-67
2022/08/12 11:11:21;;;;;;;2.40;1.60;;;29.10;91.70;;;;;;5032179;28;20493;-67
2022/08/12 11:13:47;;;;;;;3.28;1.50;;;29.10;91.40;;;;;;5032909;28;20501;-67
2022/08/12 11:16:15;;;;;;;2.22;1.52;;;29.20;91.50;;;;;;5033197;28;20049;-67
2022/08/12 11:18:40;;;;;;;2.47;1.55;;;29.30;91.20;;;;;;5033791;28;20067;-67
2022/08/12 11:21:06;;;;;;;2.17;1.45;;;29.40;90.90;;;;;;5016364;28;20525;-67
2022/08/12 11:23:32;;;;;;;4.65;1.30;;;29.40;90.50;;;;;;4999371;28;20053;-66
2022/08/12 11:25:58;;;;;;;4.20;1.70;;;29.40;89.90;;;;;;5033389;28;20045;-65
2022/08/12 11:28:23;;;;;;;1.95;1.40;;;29.40;89.80;;;;;;5032828;28;20037;-66
2022/08/12 11:30:49;;;;;;;4.28;1.42;;;29.50;89.40;;;;;;5032791;28;20076;-66
2022/08/12 11:33:15;;;;;;;2.10;1.50;;;29.50;88.60;;;;;;5032693;28;20045;-65
2022/08/12 11:35:42;;;;;;;3.58;1.35;;;29.50;88.60;;;;;;5033487;28;20048;-65
2022/08/12 11:38:08;;;;;;;2.25;1.55;;;29.50;88.10;;;;;;5032720;28;20045;-65
2022/08/12 11:40:34;;;;;;;3.00;1.52;;;29.60;87.40;;;;;;5032374;28;20512;-66
2022/08/12 11:43:00;;;;;;;2.53;1.60;;;29.70;87.10;;;;;;5032858;28;20046;-66
2022/08/12 11:45:27;;;;;;;3.40;1.50;;;29.60;86.90;;;;;;5033026;28;20038;-65
2022/08/12 11:47:54;;;;;;;1.90;1.40;;;29.60;86.50;;;;;;5033131;28;20042;-65
2022/08/12 11:50:21;;;;;;;2.42;1.63;;;29.60;86.10;;;;;;5032928;28;20473;-65
2022/08/12 11:52:47;;;;;;;4.05;1.50;;;29.70;85.20;;;;;;5033568;28;20045;-65
2022/08/12 11:55:13;;;;;;;3.33;1.70;;;29.70;84.30;;;;;;5032772;28;20046;-65
2022/08/12 11:57:52;;;;;;;1.90;1.40;;;29.60;83.80;;;;;;5032836;28;20204;-65
2022/08/12 12:00:19;;;;;;;3.05;1.50;;;29.60;84.00;;;;;;5032908;28;20051;-65
2022/08/12 12:02:45;;;;;;;1.80;1.30;;;29.60;84.30;;;;;;5032443;28;20529;-66
2022/08/12 12:05:11;;;;;;;2.78;1.38;;;29.70;84.20;;;;;;5032772;28;20426;-65
2022/08/12 12:07:41;;;;;;;2.47;1.38;;;29.70;83.60;;;;;;5032710;28;20045;-65
2022/08/12 12:10:08;;;;;;;3.25;1.52;;;29.80;84.00;;;;;;5032262;28;20100;-65
2022/08/12 12:12:34;;;;;;;3.40;1.60;;;29.80;83.20;;;;;;5032647;28;20054;-65
2022/08/12 12:15:00;;;;;;;3.75;1.60;;;29.80;83.00;;;;;;5033275;28;20049;-65
2022/08/12 12:17:26;;;;;;;2.88;1.70;;;29.90;82.60;;;;;;5032276;28;20483;-65
2022/08/12 12:19:53;;;;;;;3.35;1.50;;;29.90;82.30;;;;;;5032564;28;20041;-65
2022/08/12 12:22:19;;;;;;;3.28;1.40;;;29.90;82.00;;;;;;5033541;28;20056;-65
2022/08/12 12:24:46;;;;;;;3.00;1.50;;;29.90;81.80;;;;;;5036248;28;20056;-65
2022/08/12 12:27:12;;;;;;;3.85;1.80;;;29.90;81.80;;;;;;5035957;28;20524;-65
2022/08/12 12:29:38;;;;;;;4.65;1.80;;;29.90;81.00;;;;;;5036034;28;20099;-65
2022/08/12 12:32:03;;;;;;;2.15;1.70;;;29.90;80.80;;;;;;5036085;28;20069;-64
2022/08/12 12:34:29;;;;;;;1.90;1.58;;;29.90;80.60;;;;;;5036063;28;20473;-65
2022/08/12 12:36:55;;;;;;;4.53;1.77;;;29.80;80.90;;;;;;5018551;28;20049;-65
2022/08/12 12:39:21;;;;;;;2.75;2.13;;;29.90;80.60;;;;;;5036041;28;20045;-65
2022/08/12 12:41:46;;;;;;;2.95;1.70;;;29.90;80.50;;;;;;5018375;28;20046;-65
2022/08/12 12:44:12;;;;;;;2.85;1.67;;;29.90;80.70;;;;;;5036010;28;20052;-65
2022/08/12 12:46:38;;;;;;;2.50;1.80;;;30.00;80.60;;;;;;5036341;28;20132;-65
2022/08/12 12:49:03;;;;;;;4.07;1.85;;;30.10;80.50;;;;;;5036212;28;20068;-65
2022/08/12 12:51:29;;;;;;;3.88;2.10;;;30.10;80.40;;;;;;5036393;28;20047;-65
2022/08/12 12:53:55;;;;;;;2.38;1.65;;;30.20;80.30;;;;;;5035718;28;20478;-65
2022/08/12 12:56:22;;;;;;;3.17;1.65;;;30.10;79.60;;;;;;5019043;28;20406;-65
2022/08/12 12:58:50;;;;;;;3.63;1.88;;;30.10;79.80;;;;;;5035424;28;20521;-66
2022/08/12 13:01:24;;;;;;;2.35;1.65;;;30.10;78.60;;;;;;5035563;28;20549;-66
2022/08/12 13:03:55;;;;;;;3.22;1.90;;;30.00;78.00;;;;;;5036018;28;20054;-67
2022/08/12 13:06:25;;;;;;;2.95;1.90;;;29.90;77.80;;;;;;5035916;28;20056;-66
2022/08/12 13:08:54;;;;;;;3.55;2.00;;;29.90;77.60;;;;;;5035816;28;20124;-66
2022/08/12 13:11:21;;;;;;;3.30;1.80;;;29.80;78.00;;;;;;5017727;28;20581;-66
2022/08/12 13:13:52;;;;;;;2.50;1.60;;;29.80;78.40;;;;;;5035416;28;20132;-66
2022/08/12 13:16:21;;;;;;;4.78;2.08;;;29.90;78.90;;;;;;5035600;28;20041;-67
2022/08/12 13:18:51;;;;;;;2.30;1.90;;;29.90;78.60;;;;;;5035385;28;20103;-66
2022/08/12 13:21:17;;;;;;;2.72;1.80;;;29.90;78.70;;;;;;5035290;28;20134;-66
2022/08/12 13:23:44;;;;;;;2.80;2.35;;;29.90;78.50;;;;;;5035209;28;20056;-66
2022/08/12 13:26:17;;;;;;;4.32;2.30;;;30.10;78.30;;;;;;5017670;28;20486;-66
2022/08/12 13:28:44;;;;;;;2.53;2.03;;;30.10;77.90;;;;;;5035734;28;20041;-66
2022/08/12 13:31:12;;;;;;;3.90;2.20;;;30.00;77.70;;;;;;5014190;28;20056;-67
2022/08/12 13:33:38;;;;;;;4.22;1.80;;;30.00;78.70;;;;;;5014454;28;20137;-66
2022/08/12 13:36:04;;;;;;;2.33;1.77;;;30.00;77.70;;;;;;5014005;28;20125;-65
2022/08/12 13:38:52;;;;;;;2.17;1.67;;;30.10;77.70;;;;;;5015427;28;20085;-64
2022/08/12 13:41:34;;;;;;;2.00;1.50;;;30.10;77.80;;;;;;5015991;28;20050;-64
2022/08/12 13:44:05;;;;;;;2.63;1.70;;;30.10;78.20;;;;;;5015172;28;20096;-65
2022/08/12 13:46:31;;;;;;;2.22;1.58;;;30.10;77.70;;;;;;5015355;28;20046;-63
2022/08/12 13:48:56;;;;;;;3.05;1.60;;;30.20;77.30;;;;;;5014973;28;20046;-63
2022/08/12 13:51:23;;;;;;;3.53;2.38;;;30.20;76.90;;;;;;5014998;28;20046;-63
2022/08/12 13:53:49;;;;;;;3.08;1.67;;;30.20;76.20;;;;;;5014814;28;20077;-63
2022/08/12 13:56:15;;;;;;;3.80;1.90;;;30.20;76.30;;;;;;5013829;28;20514;-63
2022/08/12 13:58:50;;;;;;;3.45;1.63;;;30.50;75.80;;;;;;5014916;28;20052;-64
2022/08/12 14:01:17;;;;;;;3.15;1.85;;;30.60;76.10;;;;;;5014744;28;20180;-63
2022/08/12 14:03:43;;;;;;;2.30;1.70;;;30.60;75.90;;;;;;5015426;28;20368;-63
2022/08/12 14:06:11;;;;;;;2.10;1.50;;;30.50;76.30;;;;;;5014702;28;20053;-63
2022/08/12 14:08:37;;;;;;;3.25;1.80;;;30.50;76.10;;;;;;5014389;28;20053;-62
2022/08/12 14:11:03;;;;;;;2.85;1.67;;;30.40;75.80;;;;;;5014627;28;20115;-63
2022/08/12 14:13:30;;;;;;;3.33;1.63;;;30.30;75.70;;;;;;5014539;28;20081;-63
2022/08/12 14:15:58;;;;;;;3.65;1.65;;;30.40;75.80;;;;;;5012865;28;20041;-63
2022/08/12 14:18:29;;;;;;;2.80;1.65;;;30.40;76.00;;;;;;5014114;28;20511;-63
2022/08/12 14:20:57;;;;;;;3.28;1.60;;;30.30;75.40;;;;;;5014410;28;20573;-63
2022/08/12 14:23:24;;;;;;;2.42;1.35;;;30.30;75.00;;;;;;5014872;28;20081;-63
2022/08/12 14:25:51;;;;;;;3.08;1.40;;;30.20;75.10;;;;;;5014147;28;20111;-63
2022/08/12 14:28:19;;;;;;;2.60;1.70;;;30.20;75.30;;;;;;5014092;28;20504;-63
2022/08/12 14:30:59;;;;;;;2.47;1.50;;;30.20;75.00;;;;;;5023709;28;20065;-63
2022/08/12 14:33:29;;;;;;;3.58;1.63;;;30.30;74.80;;;;;;5033924;28;20088;-64
2022/08/12 14:35:56;;;;;;;2.35;1.50;;;30.30;74.40;;;;;;5033713;28;20045;-64
2022/08/12 14:38:24;;;;;;;2.30;1.60;;;30.20;74.50;;;;;;5034287;28;20056;-63
2022/08/12 14:40:56;;;;;;;2.85;1.52;;;30.30;74.30;;;;;;5033662;28;20053;-63
2022/08/12 14:43:24;;;;;;;3.58;1.83;;;30.30;74.60;;;;;;5033707;28;20052;-64
2022/08/12 14:45:49;;;;;;;2.65;1.58;;;30.30;74.80;;;;;;5033390;28;20041;-63
2022/08/12 14:48:17;;;;;;;2.90;1.50;;;30.30;74.80;;;;;;5033590;28;20053;-65
2022/08/12 14:50:45;;;;;;;2.28;1.52;;;30.30;74.60;;;;;;5033559;28;20053;-65